sensor_id;sensor_type;location;lat;lon;timestamp;temperature;humidity
19496;DHT22;9888;48.606;9.630;2022-08-03T00:00:54;13.90;99.90
19496;DHT22;9888;48.606;9.630;2022-08-03T00:03:22;13.90;99.90
19496;DHT22;9888;48.606;9.630;2022-08-03T00:06:16;13.90;99.90
19496;DHT22;9888;48.606;9.630;2022-08-03T00:08:48;13.90;99.90
19496;DHT22;9888;48.606;9.630;2022-08-03T00:11:19;13.90;99.90
19496;DHT22;9888;48.606;9.630;2022-08-03T00:13:49;13.90;99.90
19496;DHT22;9888;48.606;9.630;2022-08-03T00:16:17;13.90;99.90
19496;DHT22;9888;48.606;9.630;2022-08-03T00:18:45;13.80;99.90
19496;DHT22;9888;48.606;9.630;2022-08-03T00:21:13;13.80;99.90
19496;DHT22;9888;48.606;9.630;2022-08-03T00:23:41;13.80;99.90
19496;DHT22;9888;48.606;9.630;2022-08-03T00:26:16;13.70;99.90
19496;DHT22;9888;48.606;9.630;2022-08-03T00:28:45;13.70;99.90
19496;DHT22;9888;48.606;9.630;2022-08-03T00:31:17;13.80;99.90
19496;DHT22;9888;48.606;9.630;2022-08-03T00:33:52;13.80;99.90
19496;DHT22;9888;48.606;9.630;2022-08-03T00:36:18;13.80;99.90
19496;DHT22;9888;48.606;9.630;2022-08-03T00:38:55;13.80;99.90
19496;DHT22;9888;48.606;9.630;2022-08-03T00:41:23;13.90;99.90
19496;DHT22;9888;48.606;9.630;2022-08-03T00:43:50;13.80;99.90
19496;DHT22;9888;48.606;9.630;2022-08-03T00:46:22;13.80;99.90
19496;DHT22;9888;48.606;9.630;2022-08-03T00:48:51;13.70;99.90
19496;DHT22;9888;48.606;9.630;2022-08-03T00:51:19;13.60;99.90
19496;DHT22;9888;48.606;9.630;2022-08-03T00:53:47;13.60;99.90
19496;DHT22;9888;48.606;9.630;2022-08-03T00:56:17;13.50;99.90
19496;DHT22;9888;48.606;9.630;2022-08-03T00:58:45;13.50;99.90
19496;DHT22;9888;48.606;9.630;2022-08-03T01:01:15;13.50;99.90
19496;DHT22;9888;48.606;9.630;2022-08-03T01:04:03;13.60;99.90
19496;DHT22;9888;48.606;9.630;2022-08-03T01:06:35;13.60;99.90
19496;DHT22;9888;48.606;9.630;2022-08-03T01:23:01;13.40;99.90
19496;DHT22;9888;48.606;9.630;2022-08-03T01:25:53;13.40;99.90
19496;DHT22;9888;48.606;9.630;2022-08-03T01:34:48;13.40;99.90
19496;DHT22;9888;48.606;9.630;2022-08-03T01:37:23;13.40;99.90
19496;DHT22;9888;48.606;9.630;2022-08-03T01:39:56;13.40;99.90
19496;DHT22;9888;48.606;9.630;2022-08-03T01:42:26;13.30;99.90
19496;DHT22;9888;48.606;9.630;2022-08-03T01:48:47;13.30;99.90
19496;DHT22;9888;48.606;9.630;2022-08-03T01:58:25;13.30;99.90
19496;DHT22;9888;48.606;9.630;2022-08-03T02:00:57;13.30;99.90
19496;DHT22;9888;48.606;9.630;2022-08-03T02:03:44;13.30;99.90
19496;DHT22;9888;48.606;9.630;2022-08-03T02:06:13;13.30;99.90
19496;DHT22;9888;48.606;9.630;2022-08-03T02:08:49;13.30;99.90
19496;DHT22;9888;48.606;9.630;2022-08-03T02:11:22;13.30;99.90
19496;DHT22;9888;48.606;9.630;2022-08-03T02:13:52;13.30;99.90
19496;DHT22;9888;48.606;9.630;2022-08-03T02:16:21;13.20;99.90
19496;DHT22;9888;48.606;9.630;2022-08-03T02:18:49;13.20;99.90
19496;DHT22;9888;48.606;9.630;2022-08-03T02:21:21;13.30;99.90
19496;DHT22;9888;48.606;9.630;2022-08-03T02:23:50;13.30;99.90
19496;DHT22;9888;48.606;9.630;2022-08-03T02:26:19;13.30;99.90
19496;DHT22;9888;48.606;9.630;2022-08-03T02:28:51;13.20;99.90
19496;DHT22;9888;48.606;9.630;2022-08-03T02:31:26;13.20;99.90
19496;DHT22;9888;48.606;9.630;2022-08-03T02:34:01;13.20;99.90
19496;DHT22;9888;48.606;9.630;2022-08-03T02:36:34;13.20;99.90
19496;DHT22;9888;48.606;9.630;2022-08-03T02:39:03;13.20;99.90
19496;DHT22;9888;48.606;9.630;2022-08-03T02:41:47;13.20;99.90
19496;DHT22;9888;48.606;9.630;2022-08-03T02:44:23;13.10;99.90
19496;DHT22;9888;48.606;9.630;2022-08-03T02:46:55;13.10;99.90
19496;DHT22;9888;48.606;9.630;2022-08-03T02:49:27;13.10;99.90
19496;DHT22;9888;48.606;9.630;2022-08-03T02:51:58;13.10;99.90
19496;DHT22;9888;48.606;9.630;2022-08-03T02:54:31;13.10;99.90
19496;DHT22;9888;48.606;9.630;2022-08-03T02:57:09;13.00;99.90
19496;DHT22;9888;48.606;9.630;2022-08-03T02:59:39;13.00;99.90
19496;DHT22;9888;48.606;9.630;2022-08-03T03:02:07;13.00;99.90
19496;DHT22;9888;48.606;9.630;2022-08-03T03:04:36;13.00;99.90
19496;DHT22;9888;48.606;9.630;2022-08-03T03:07:05;13.00;99.90
19496;DHT22;9888;48.606;9.630;2022-08-03T03:09:33;13.00;99.90
19496;DHT22;9888;48.606;9.630;2022-08-03T03:12:06;13.00;99.90
19496;DHT22;9888;48.606;9.630;2022-08-03T03:14:36;13.00;99.90
19496;DHT22;9888;48.606;9.630;2022-08-03T03:17:08;13.00;99.90
19496;DHT22;9888;48.606;9.630;2022-08-03T03:23:12;12.90;99.90
19496;DHT22;9888;48.606;9.630;2022-08-03T03:25:57;12.90;99.90
19496;DHT22;9888;48.606;9.630;2022-08-03T03:28:30;12.90;99.90
19496;DHT22;9888;48.606;9.630;2022-08-03T03:34:21;12.90;99.90
19496;DHT22;9888;48.606;9.630;2022-08-03T03:40:11;12.90;99.90
19496;DHT22;9888;48.606;9.630;2022-08-03T03:42:44;12.90;99.90
19496;DHT22;9888;48.606;9.630;2022-08-03T03:45:14;12.90;99.90
19496;DHT22;9888;48.606;9.630;2022-08-03T03:47:45;12.80;99.90
19496;DHT22;9888;48.606;9.630;2022-08-03T03:50:16;12.80;99.90
19496;DHT22;9888;48.606;9.630;2022-08-03T03:52:45;12.80;99.90
19496;DHT22;9888;48.606;9.630;2022-08-03T03:55:18;12.80;99.90
19496;DHT22;9888;48.606;9.630;2022-08-03T03:58:07;12.80;99.90
19496;DHT22;9888;48.606;9.630;2022-08-03T04:00:51;12.90;99.90
19496;DHT22;9888;48.606;9.630;2022-08-03T04:03:27;12.90;99.90
19496;DHT22;9888;48.606;9.630;2022-08-03T04:06:15;12.90;99.90
19496;DHT22;9888;48.606;9.630;2022-08-03T04:09:03;13.00;99.90
19496;DHT22;9888;48.606;9.630;2022-08-03T04:15:21;12.90;99.90
19496;DHT22;9888;48.606;9.630;2022-08-03T04:17:50;12.90;99.90
19496;DHT22;9888;48.606;9.630;2022-08-03T04:20:21;12.90;99.90
19496;DHT22;9888;48.606;9.630;2022-08-03T04:26:27;12.90;99.90
19496;DHT22;9888;48.606;9.630;2022-08-03T04:29:00;13.00;99.90
19496;DHT22;9888;48.606;9.630;2022-08-03T04:31:45;13.00;99.90
19496;DHT22;9888;48.606;9.630;2022-08-03T04:34:17;13.10;99.90
19496;DHT22;9888;48.606;9.630;2022-08-03T04:36:56;13.10;99.90
19496;DHT22;9888;48.606;9.630;2022-08-03T04:39:29;13.20;99.90
19496;DHT22;9888;48.606;9.630;2022-08-03T04:45:24;13.40;99.90
19496;DHT22;9888;48.606;9.630;2022-08-03T04:47:54;13.50;99.90
19496;DHT22;9888;48.606;9.630;2022-08-03T04:50:28;13.70;99.90
19496;DHT22;9888;48.606;9.630;2022-08-03T04:53:02;13.80;99.90
19496;DHT22;9888;48.606;9.630;2022-08-03T04:55:35;13.90;99.90
19496;DHT22;9888;48.606;9.630;2022-08-03T04:58:12;14.10;99.90
19496;DHT22;9888;48.606;9.630;2022-08-03T05:18:20;14.90;99.90
19496;DHT22;9888;48.606;9.630;2022-08-03T05:21:01;15.10;99.90
19496;DHT22;9888;48.606;9.630;2022-08-03T05:27:20;15.50;99.90
19496;DHT22;9888;48.606;9.630;2022-08-03T05:33:22;15.90;99.90
19496;DHT22;9888;48.606;9.630;2022-08-03T05:39:41;16.20;99.90
19496;DHT22;9888;48.606;9.630;2022-08-03T05:49:07;16.60;99.90
19496;DHT22;9888;48.606;9.630;2022-08-03T05:58:24;17.20;99.90
19496;DHT22;9888;48.606;9.630;2022-08-03T06:00:53;17.40;99.90
19496;DHT22;9888;48.606;9.630;2022-08-03T06:03:23;17.60;99.90
19496;DHT22;9888;48.606;9.630;2022-08-03T06:05:58;17.70;99.90
19496;DHT22;9888;48.606;9.630;2022-08-03T06:08:28;17.90;99.90
19496;DHT22;9888;48.606;9.630;2022-08-03T06:10:56;18.00;99.90
19496;DHT22;9888;48.606;9.630;2022-08-03T06:13:24;18.10;99.90
19496;DHT22;9888;48.606;9.630;2022-08-03T06:15:54;18.20;99.90
19496;DHT22;9888;48.606;9.630;2022-08-03T06:18:22;18.40;99.90
19496;DHT22;9888;48.606;9.630;2022-08-03T06:20:51;18.60;99.90
19496;DHT22;9888;48.606;9.630;2022-08-03T06:23:18;18.70;99.90
19496;DHT22;9888;48.606;9.630;2022-08-03T06:25:46;18.90;99.90
19496;DHT22;9888;48.606;9.630;2022-08-03T06:28:19;19.10;99.90
19496;DHT22;9888;48.606;9.630;2022-08-03T06:31:03;19.20;99.90
19496;DHT22;9888;48.606;9.630;2022-08-03T06:33:31;19.50;99.90
19496;DHT22;9888;48.606;9.630;2022-08-03T06:36:02;19.60;99.90
19496;DHT22;9888;48.606;9.630;2022-08-03T06:38:30;19.80;99.90
19496;DHT22;9888;48.606;9.630;2022-08-03T06:40:58;20.00;99.90
19496;DHT22;9888;48.606;9.630;2022-08-03T06:43:28;20.20;99.90
19496;DHT22;9888;48.606;9.630;2022-08-03T06:45:56;20.40;99.90
19496;DHT22;9888;48.606;9.630;2022-08-03T06:48:24;20.60;99.90
19496;DHT22;9888;48.606;9.630;2022-08-03T06:50:52;20.80;99.90
19496;DHT22;9888;48.606;9.630;2022-08-03T06:53:20;21.10;99.90
19496;DHT22;9888;48.606;9.630;2022-08-03T06:56:06;21.40;99.90
19496;DHT22;9888;48.606;9.630;2022-08-03T06:58:33;21.70;99.90
19496;DHT22;9888;48.606;9.630;2022-08-03T07:01:02;22.00;99.90
19496;DHT22;9888;48.606;9.630;2022-08-03T07:03:32;22.20;99.90
19496;DHT22;9888;48.606;9.630;2022-08-03T07:06:01;22.50;99.90
19496;DHT22;9888;48.606;9.630;2022-08-03T07:08:28;22.70;99.90
19496;DHT22;9888;48.606;9.630;2022-08-03T07:10:56;22.90;99.90
19496;DHT22;9888;48.606;9.630;2022-08-03T07:13:23;23.10;99.90
19496;DHT22;9888;48.606;9.630;2022-08-03T07:15:51;23.20;99.90
19496;DHT22;9888;48.606;9.630;2022-08-03T07:18:19;23.40;99.90
19496;DHT22;9888;48.606;9.630;2022-08-03T07:20:48;23.60;99.90
19496;DHT22;9888;48.606;9.630;2022-08-03T07:23:15;23.80;99.90
19496;DHT22;9888;48.606;9.630;2022-08-03T07:25:44;23.90;99.90
19496;DHT22;9888;48.606;9.630;2022-08-03T07:28:11;24.10;99.90
19496;DHT22;9888;48.606;9.630;2022-08-03T07:30:38;24.30;99.90
19496;DHT22;9888;48.606;9.630;2022-08-03T07:33:08;24.50;99.90
19496;DHT22;9888;48.606;9.630;2022-08-03T07:35:35;24.80;99.90
19496;DHT22;9888;48.606;9.630;2022-08-03T07:38:05;25.00;99.90
19496;DHT22;9888;48.606;9.630;2022-08-03T07:40:33;25.10;99.90
19496;DHT22;9888;48.606;9.630;2022-08-03T07:43:00;25.20;99.90
19496;DHT22;9888;48.606;9.630;2022-08-03T07:45:30;25.40;99.90
19496;DHT22;9888;48.606;9.630;2022-08-03T07:47:57;25.50;99.90
19496;DHT22;9888;48.606;9.630;2022-08-03T07:50:26;25.70;99.90
19496;DHT22;9888;48.606;9.630;2022-08-03T07:52:53;25.80;99.90
19496;DHT22;9888;48.606;9.630;2022-08-03T07:55:25;26.00;99.90
19496;DHT22;9888;48.606;9.630;2022-08-03T07:58:04;25.90;99.90
19496;DHT22;9888;48.606;9.630;2022-08-03T08:00:33;26.00;99.90
19496;DHT22;9888;48.606;9.630;2022-08-03T08:03:05;26.10;99.90
19496;DHT22;9888;48.606;9.630;2022-08-03T08:05:37;26.30;99.90
19496;DHT22;9888;48.606;9.630;2022-08-03T08:08:06;26.50;99.90
19496;DHT22;9888;48.606;9.630;2022-08-03T08:10:34;26.60;99.90
19496;DHT22;9888;48.606;9.630;2022-08-03T08:13:04;26.80;99.90
19496;DHT22;9888;48.606;9.630;2022-08-03T08:15:34;26.80;99.90
19496;DHT22;9888;48.606;9.630;2022-08-03T08:18:01;26.90;99.90
19496;DHT22;9888;48.606;9.630;2022-08-03T08:20:33;27.00;99.90
19496;DHT22;9888;48.606;9.630;2022-08-03T08:23:07;27.00;99.90
19496;DHT22;9888;48.606;9.630;2022-08-03T08:25:35;27.20;99.90
19496;DHT22;9888;48.606;9.630;2022-08-03T08:31:24;27.30;99.90
19496;DHT22;9888;48.606;9.630;2022-08-03T08:33:52;27.40;99.90
19496;DHT22;9888;48.606;9.630;2022-08-03T08:36:21;27.60;99.90
19496;DHT22;9888;48.606;9.630;2022-08-03T08:38:51;27.70;99.90
19496;DHT22;9888;48.606;9.630;2022-08-03T08:41:20;27.90;99.90
19496;DHT22;9888;48.606;9.630;2022-08-03T08:43:52;28.00;99.90
19496;DHT22;9888;48.606;9.630;2022-08-03T08:46:22;28.10;99.90
19496;DHT22;9888;48.606;9.630;2022-08-03T08:48:51;28.10;99.90
19496;DHT22;9888;48.606;9.630;2022-08-03T08:51:30;28.10;99.90
19496;DHT22;9888;48.606;9.630;2022-08-03T08:54:06;28.10;99.90
19496;DHT22;9888;48.606;9.630;2022-08-03T08:56:35;28.30;99.90
19496;DHT22;9888;48.606;9.630;2022-08-03T08:59:04;28.40;99.90
19496;DHT22;9888;48.606;9.630;2022-08-03T09:01:33;28.50;99.90
19496;DHT22;9888;48.606;9.630;2022-08-03T09:04:00;28.50;99.90
19496;DHT22;9888;48.606;9.630;2022-08-03T09:09:54;28.60;99.90
19496;DHT22;9888;48.606;9.630;2022-08-03T09:12:47;28.70;99.90
19496;DHT22;9888;48.606;9.630;2022-08-03T09:15:31;28.80;99.90
19496;DHT22;9888;48.606;9.630;2022-08-03T09:18:02;28.80;99.90
19496;DHT22;9888;48.606;9.630;2022-08-03T09:20:32;28.80;99.90
19496;DHT22;9888;48.606;9.630;2022-08-03T09:23:03;29.00;99.90
19496;DHT22;9888;48.606;9.630;2022-08-03T09:25:38;29.30;99.90
19496;DHT22;9888;48.606;9.630;2022-08-03T09:31:14;29.10;99.90
19496;DHT22;9888;48.606;9.630;2022-08-03T09:33:50;29.10;99.90
19496;DHT22;9888;48.606;9.630;2022-08-03T09:36:41;29.30;99.90
19496;DHT22;9888;48.606;9.630;2022-08-03T09:39:17;29.50;99.90
19496;DHT22;9888;48.606;9.630;2022-08-03T09:45:05;29.80;99.90
19496;DHT22;9888;48.606;9.630;2022-08-03T09:47:34;29.90;99.90
19496;DHT22;9888;48.606;9.630;2022-08-03T09:50:05;30.10;99.90
19496;DHT22;9888;48.606;9.630;2022-08-03T09:52:40;30.00;99.90
19496;DHT22;9888;48.606;9.630;2022-08-03T09:55:23;30.10;99.90
19496;DHT22;9888;48.606;9.630;2022-08-03T09:58:12;30.20;99.90
19496;DHT22;9888;48.606;9.630;2022-08-03T10:00:57;30.30;99.90
19496;DHT22;9888;48.606;9.630;2022-08-03T10:03:45;30.40;99.90
19496;DHT22;9888;48.606;9.630;2022-08-03T10:06:25;30.70;99.90
19496;DHT22;9888;48.606;9.630;2022-08-03T10:09:15;30.80;99.90
19496;DHT22;9888;48.606;9.630;2022-08-03T10:11:43;30.80;99.90
19496;DHT22;9888;48.606;9.630;2022-08-03T10:14:15;30.80;99.90
19496;DHT22;9888;48.606;9.630;2022-08-03T10:16:59;31.00;99.90
19496;DHT22;9888;48.606;9.630;2022-08-03T10:19:26;30.80;99.90
19496;DHT22;9888;48.606;9.630;2022-08-03T10:21:58;30.70;99.90
19496;DHT22;9888;48.606;9.630;2022-08-03T10:24:29;30.70;99.90
19496;DHT22;9888;48.606;9.630;2022-08-03T10:27:03;30.90;99.90
19496;DHT22;9888;48.606;9.630;2022-08-03T10:29:40;31.30;99.90
19496;DHT22;9888;48.606;9.630;2022-08-03T10:32:42;31.40;99.90
19496;DHT22;9888;48.606;9.630;2022-08-03T10:35:16;31.60;99.90
19496;DHT22;9888;48.606;9.630;2022-08-03T10:40:30;32.20;99.50
19496;DHT22;9888;48.606;9.630;2022-08-03T10:43:08;32.10;97.40
19496;DHT22;9888;48.606;9.630;2022-08-03T10:45:48;32.10;95.40
19496;DHT22;9888;48.606;9.630;2022-08-03T10:48:16;32.00;98.10
19496;DHT22;9888;48.606;9.630;2022-08-03T10:50:45;32.20;97.30
19496;DHT22;9888;48.606;9.630;2022-08-03T22:29:07;16.50;99.90
19496;DHT22;9888;48.606;9.630;2022-08-03T23:12:07;15.90;99.90
19496;DHT22;9888;48.606;9.630;2022-08-03T23:21:19;15.80;99.90
19496;DHT22;9888;48.606;9.630;2022-08-03T23:23:48;15.80;99.90
19496;DHT22;9888;48.606;9.630;2022-08-03T23:26:19;15.80;99.90
19496;DHT22;9888;48.606;9.630;2022-08-03T23:35:33;15.70;99.90
